Time;durP1;ratioP1;P1;durP2;ratioP2;P2;SDS_P1;SDS_P2;PMS_P1;PMS_P2;Temp;Humidity;BMP_temperature;BMP_pressure;BME280_temperature;BME280_humidity;BME280_pressure;Samples;Min_cycle;Max_cycle;Signal;HPM_P1;HPM_P2
2023/06/18 00:00:29;;;;;;;5.78;3.30;;;;;;;22.42;77.04;101272.88;5055612;28;20068;-67
2023/06/18 00:02:54;;;;;;;4.70;3.00;;;;;;;22.42;77.20;101265.47;5057616;28;20032;-67
2023/06/18 00:05:20;;;;;;;5.07;3.28;;;;;;;22.41;77.44;101272.00;5056823;28;20039;-67
2023/06/18 00:07:45;;;;;;;8.13;3.47;;;;;;;22.41;77.68;101269.28;5054745;28;20052;-66
2023/06/18 00:10:11;;;;;;;4.95;3.15;;;;;;;22.40;77.84;101267.63;5055575;28;20032;-66
2023/06/18 00:12:36;;;;;;;7.30;3.40;;;;;;;22.40;78.13;101266.81;5057112;28;20056;-66
2023/06/18 00:15:02;;;;;;;5.65;3.10;;;;;;;22.40;78.48;101262.16;5039042;28;20036;-66
2023/06/18 00:17:27;;;;;;;5.32;3.33;;;;;;;22.36;78.39;101274.75;5056930;28;20025;-67
2023/06/18 00:19:53;;;;;;;6.85;3.10;;;;;;;22.39;79.03;101274.22;5054565;28;20040;-67
2023/06/18 00:22:18;;;;;;;6.28;3.50;;;;;;;22.37;78.74;101272.81;5054825;28;20035;-67
2023/06/18 00:24:44;;;;;;;5.88;3.22;;;;;;;22.37;78.91;101275.56;5055648;28;20387;-67
2023/06/18 00:27:09;;;;;;;5.90;3.65;;;;;;;22.37;79.14;101281.06;5055895;28;20455;-67
2023/06/18 00:29:35;;;;;;;3.63;3.13;;;;;;;22.35;79.38;101289.56;5054732;28;20040;-67
2023/06/18 00:32:01;;;;;;;6.03;3.17;;;;;;;22.32;79.47;101281.88;5054315;28;20111;-67
2023/06/18 00:34:32;;;;;;;6.55;3.58;;;;;;;22.33;79.48;101274.47;5055767;28;20078;-67
2023/06/18 00:37:00;;;;;;;4.72;3.53;;;;;;;22.33;79.80;101267.06;5054290;28;20033;-67
2023/06/18 00:39:25;;;;;;;6.20;3.42;;;;;;;22.34;79.80;101267.88;5054222;28;20032;-67
2023/06/18 00:41:51;;;;;;;4.82;3.20;;;;;;;22.32;79.71;101276.38;5055718;28;20025;-67
2023/06/18 00:44:20;;;;;;;6.93;3.20;;;;;;;22.30;79.99;101278.56;5056020;28;20093;-67
2023/06/18 00:46:47;;;;;;;5.15;3.40;;;;;;;22.27;80.05;101279.91;5053854;28;20061;-67
2023/06/18 00:49:15;;;;;;;5.93;3.55;;;;;;;22.25;79.95;101282.09;5055849;28;20043;-66
2023/06/18 00:51:44;;;;;;;4.82;3.47;;;;;;;22.22;80.08;101288.09;5055587;28;20373;-66
2023/06/18 00:54:13;;;;;;;6.25;3.40;;;;;;;22.22;80.02;101274.41;5038160;28;20032;-67
2023/06/18 00:56:50;;;;;;;6.35;3.45;;;;;;;22.24;79.97;101279.59;5037814;28;20037;-67
2023/06/18 00:59:22;;;;;;;6.00;3.50;;;;;;;22.26;79.94;101271.97;5056488;28;20045;-66
2023/06/18 01:01:55;;;;;;;4.60;3.40;;;;;;;22.27;79.88;101260.72;5038439;28;20032;-67
2023/06/18 01:04:25;;;;;;;4.38;3.40;;;;;;;22.25;80.02;101265.66;5056776;28;20032;-67
2023/06/18 01:06:52;;;;;;;5.72;3.83;;;;;;;22.23;80.23;101259.59;5053354;28;20558;-66
2023/06/18 01:09:22;;;;;;;3.92;3.45;;;;;;;22.24;80.35;101260.41;5055729;28;20033;-67
2023/06/18 01:11:52;;;;;;;4.75;3.25;;;;;;;22.12;80.57;101237.84;5055150;28;20025;-67
2023/06/18 01:14:23;;;;;;;6.50;3.60;;;;;;;22.22;80.68;101257.97;5056348;28;20029;-67
2023/06/18 01:16:55;;;;;;;5.35;3.20;;;;;;;22.22;80.70;101251.66;5055671;28;20439;-66
2023/06/18 01:19:40;;;;;;;5.18;3.38;;;;;;;22.23;80.58;101256.03;5058809;28;20437;-67
2023/06/18 01:22:32;;;;;;;5.38;3.50;;;;;;;22.18;80.74;101251.34;5059104;28;20044;-66
2023/06/18 01:25:03;;;;;;;6.97;3.50;;;;;;;22.10;81.21;101256.47;5050855;28;20072;-66
2023/06/18 01:27:33;;;;;;;6.18;3.55;;;;;;;22.01;81.62;101246.00;5058609;28;20097;-66
2023/06/18 01:30:00;;;;;;;4.25;3.30;;;;;;;22.10;81.39;101253.75;5058749;28;20021;-67
2023/06/18 01:32:27;;;;;;;4.25;3.03;;;;;;;22.05;81.32;101252.63;5057659;28;20083;-67
2023/06/18 01:34:57;;;;;;;5.90;3.70;;;;;;;22.02;81.65;101255.91;5057449;28;20061;-66
2023/06/18 01:37:44;;;;;;;3.95;3.20;;;;;;;22.03;81.71;101243.84;5057402;28;20522;-67
2023/06/18 01:40:26;;;;;;;3.80;3.20;;;;;;;22.00;81.91;101225.19;5056951;28;20024;-66
2023/06/18 01:43:12;;;;;;;5.70;3.40;;;;;;;22.03;81.88;101245.75;5058470;28;20112;-66
2023/06/18 01:45:49;;;;;;;7.25;3.53;;;;;;;22.02;82.30;101244.94;5058329;28;20222;-68
2023/06/18 01:48:18;;;;;;;6.43;3.28;;;;;;;22.04;82.36;101253.69;5057241;28;20025;-66
2023/06/18 01:50:46;;;;;;;4.78;3.42;;;;;;;21.94;82.72;101245.41;5058487;28;20036;-66
2023/06/18 01:53:15;;;;;;;6.18;3.25;;;;;;;21.97;83.04;101265.97;5057308;28;20383;-66
2023/06/18 01:55:44;;;;;;;4.47;3.47;;;;;;;21.88;83.48;101264.81;5056814;28;20025;-66
2023/06/18 01:58:10;;;;;;;5.57;3.63;;;;;;;21.78;84.23;101263.66;5058464;28;20493;-66
2023/06/18 02:00:36;;;;;;;6.90;3.72;;;;;;;21.85;83.99;101268.09;5057360;28;20120;-67
2023/06/18 02:03:02;;;;;;;5.82;3.40;;;;;;;21.86;83.95;101273.31;5056199;28;20060;-66
2023/06/18 02:05:27;;;;;;;5.90;3.55;;;;;;;21.83;84.15;101279.31;5056509;28;20037;-66
2023/06/18 02:07:53;;;;;;;7.13;3.63;;;;;;;21.64;84.93;101275.34;5057406;28;20404;-67
2023/06/18 02:10:18;;;;;;;6.32;3.92;;;;;;;21.55;85.59;101272.25;5057947;28;20057;-67
2023/06/18 02:12:44;;;;;;;5.63;3.67;;;;;;;21.48;85.98;101288.88;5039811;28;20098;-66
2023/06/18 02:15:09;;;;;;;6.13;3.80;;;;;;;21.42;86.36;101287.19;5058890;28;20545;-66
2023/06/18 02:17:35;;;;;;;7.57;3.63;;;;;;;21.48;85.54;101283.41;5057889;28;20036;-67
2023/06/18 02:20:01;;;;;;;5.55;3.90;;;;;;;21.20;86.75;101278.19;5059295;28;20029;-67
2023/06/18 02:22:26;;;;;;;4.70;3.70;;;;;;;21.21;87.66;101304.47;5059299;28;20031;-66
2023/06/18 02:24:52;;;;;;;5.15;3.80;;;;;;;21.26;86.90;101310.00;5058153;28;20029;-66
2023/06/18 02:27:18;;;;;;;6.35;3.72;;;;;;;20.94;86.61;101264.25;5059596;28;20056;-67
2023/06/18 02:29:45;;;;;;;6.72;4.18;;;;;;;21.14;87.55;101312.06;5057727;28;20024;-66
2023/06/18 02:32:11;;;;;;;5.22;3.70;;;;;;;21.16;86.53;101307.16;5059194;28;20025;-67
2023/06/18 02:34:37;;;;;;;7.15;4.30;;;;;;;21.32;85.72;101323.50;5059115;28;20029;-66
2023/06/18 02:37:03;;;;;;;5.80;3.80;;;;;;;21.30;85.77;101330.31;5059362;28;20099;-67
2023/06/18 02:39:29;;;;;;;6.65;4.00;;;;;;;21.27;85.00;101298.78;5057980;28;20551;-66
2023/06/18 02:41:54;;;;;;;5.47;3.70;;;;;;;21.19;86.12;101317.56;5057611;28;20036;-66
2023/06/18 02:44:20;;;;;;;4.57;3.80;;;;;;;21.27;85.56;101312.47;5041622;28;20063;-67
2023/06/18 02:46:45;;;;;;;5.35;3.85;;;;;;;21.35;85.11;101305.72;5040800;28;20057;-66
2023/06/18 02:49:11;;;;;;;6.55;3.75;;;;;;;21.37;84.80;101306.31;5058148;28;20036;-66
2023/06/18 02:51:37;;;;;;;7.90;3.90;;;;;;;21.40;85.12;101316.75;5056439;28;20032;-67
2023/06/18 02:54:02;;;;;;;7.00;4.22;;;;;;;21.37;85.18;101319.19;5055650;28;20081;-67
2023/06/18 02:56:28;;;;;;;6.05;4.00;;;;;;;21.26;85.96;101313.56;5056979;28;20029;-67
2023/06/18 02:58:56;;;;;;;4.40;3.78;;;;;;;21.23;86.17;101316.00;5056959;28;20036;-66
2023/06/18 03:01:25;;;;;;;5.80;4.22;;;;;;;21.24;86.36;101321.19;5056484;28;20033;-66
2023/06/18 03:03:53;;;;;;;6.95;4.18;;;;;;;21.26;86.12;101315.50;5058886;28;20075;-67
2023/06/18 03:06:19;;;;;;;6.05;4.07;;;;;;;21.23;86.22;101321.47;5058890;28;20032;-66
2023/06/18 03:08:46;;;;;;;5.22;4.35;;;;;;;21.20;86.58;101319.25;5056780;28;20025;-67
2023/06/18 03:11:11;;;;;;;7.20;4.18;;;;;;;20.89;87.97;101297.00;5055550;28;20477;-67
2023/06/18 03:13:37;;;;;;;5.05;4.15;;;;;;;21.08;87.41;101312.00;5056250;28;20056;-66
2023/06/18 03:16:02;;;;;;;7.07;4.13;;;;;;;21.15;87.51;101311.78;5057458;28;20061;-68
2023/06/18 03:18:28;;;;;;;6.32;4.70;;;;;;;21.15;87.65;101333.69;5058400;28;20040;-67
2023/06/18 03:20:53;;;;;;;6.57;4.10;;;;;;;21.08;88.37;101319.38;5058424;28;20510;-66
2023/06/18 03:23:20;;;;;;;7.55;4.72;;;;;;;20.96;88.39;101311.34;5058012;28;20032;-67
2023/06/18 03:25:45;;;;;;;7.22;4.68;;;;;;;20.84;90.56;101338.81;5057607;28;20237;-67
2023/06/18 03:28:11;;;;;;;6.80;4.78;;;;;;;20.85;89.92;101334.97;5057280;28;20032;-67
2023/06/18 03:30:38;;;;;;;12.38;5.38;;;;;;;20.79;90.07;101313.28;5057599;28;20033;-68
2023/06/18 03:33:04;;;;;;;7.55;4.90;;;;;;;20.80;90.42;101315.78;5055921;28;20529;-67
2023/06/18 03:35:30;;;;;;;8.13;5.07;;;;;;;20.68;91.95;101319.72;5056050;28;20116;-68
2023/06/18 03:37:55;;;;;;;9.52;4.40;;;;;;;20.60;92.24;101316.34;5057281;28;20391;-67
2023/06/18 03:40:21;;;;;;;9.02;5.13;;;;;;;20.71;91.95;101314.56;5055615;28;20033;-67
2023/06/18 03:42:46;;;;;;;8.30;5.07;;;;;;;20.71;92.54;101313.75;5054896;28;20052;-67
2023/06/18 03:45:12;;;;;;;9.63;5.40;;;;;;;20.76;92.93;101317.38;5057129;28;20088;-67
2023/06/18 03:47:37;;;;;;;9.25;5.20;;;;;;;20.75;93.16;101301.22;5039257;28;20028;-68
2023/06/18 03:50:03;;;;;;;6.13;4.65;;;;;;;20.69;92.86;101296.75;5057010;28;20127;-67
2023/06/18 03:52:28;;;;;;;9.07;5.70;;;;;;;20.64;93.23;101294.81;5057039;28;20506;-68
2023/06/18 03:54:54;;;;;;;8.43;5.38;;;;;;;20.66;93.01;101281.69;5056775;28;20040;-68
2023/06/18 03:57:20;;;;;;;7.00;5.25;;;;;;;20.59;93.32;101273.66;5057168;28;20067;-68
2023/06/18 03:59:46;;;;;;;7.72;5.40;;;;;;;20.57;94.13;101267.66;5056293;28;20056;-68
2023/06/18 04:02:12;;;;;;;10.70;5.70;;;;;;;20.45;94.35;101242.31;5039665;28;20479;-68
2023/06/18 04:04:38;;;;;;;8.57;5.20;;;;;;;20.56;95.04;101256.94;5056574;28;20052;-68
2023/06/18 04:07:04;;;;;;;11.23;5.97;;;;;;;20.62;95.26;101259.50;5052747;28;20055;-67
2023/06/18 04:09:29;;;;;;;8.93;5.72;;;;;;;20.67;95.87;101257.94;5051892;28;20032;-67
2023/06/18 04:11:54;;;;;;;10.55;6.03;;;;;;;20.75;96.14;101265.66;5054495;28;20033;-67
2023/06/18 04:14:20;;;;;;;9.43;5.70;;;;;;;20.81;96.65;101270.94;5052186;28;20062;-67
2023/06/18 04:16:46;;;;;;;6.93;5.57;;;;;;;20.85;96.61;101276.72;5055416;28;20032;-67
2023/06/18 04:19:11;;;;;;;8.23;5.78;;;;;;;20.90;96.67;101267.75;5036517;28;20029;-68
2023/06/18 04:21:38;;;;;;;9.75;5.55;;;;;;;20.90;96.44;101263.09;5053796;28;20505;-67
2023/06/18 04:24:04;;;;;;;9.95;5.85;;;;;;;20.99;96.99;101274.41;5051323;28;20059;-67
2023/06/18 04:26:30;;;;;;;11.70;6.50;;;;;;;20.95;97.56;101251.38;5053764;28;20021;-67
2023/06/18 04:28:55;;;;;;;10.95;6.40;;;;;;;21.13;97.69;101269.38;5035988;28;20102;-67
2023/06/18 04:31:21;;;;;;;8.70;5.97;;;;;;;21.17;98.11;101270.50;5054617;28;20123;-68
2023/06/18 04:33:46;;;;;;;9.07;5.88;;;;;;;21.17;98.26;101270.50;5055311;28;20039;-67
2023/06/18 04:36:14;;;;;;;11.85;6.10;;;;;;;21.15;98.23;101262.53;5056467;28;20033;-68
2023/06/18 04:38:39;;;;;;;10.13;5.53;;;;;;;21.11;97.69;101267.69;5057113;28;20025;-67
2023/06/18 04:41:05;;;;;;;9.73;5.38;;;;;;;21.04;97.43;101272.56;5056898;28;20098;-67
2023/06/18 04:43:30;;;;;;;7.28;5.30;;;;;;;21.12;96.74;101276.72;5056983;28;20552;-67
2023/06/18 04:45:56;;;;;;;10.55;5.25;;;;;;;21.10;95.73;101276.19;5056744;28;20048;-67
2023/06/18 04:48:22;;;;;;;6.60;4.78;;;;;;;21.11;94.93;101278.66;5056637;28;20083;-67
2023/06/18 04:50:48;;;;;;;9.10;5.63;;;;;;;21.19;95.74;101290.22;5055519;28;20036;-67
2023/06/18 04:53:13;;;;;;;10.05;5.38;;;;;;;21.26;96.36;101285.38;5058025;28;20051;-67
2023/06/18 04:55:39;;;;;;;8.73;5.35;;;;;;;21.34;96.12;101282.16;5059667;28;20403;-67
2023/06/18 04:58:04;;;;;;;8.90;5.25;;;;;;;21.41;95.77;101281.97;5061088;28;20072;-68
2023/06/18 05:00:31;;;;;;;8.45;5.90;;;;;;;21.46;95.69;101291.06;5060526;28;20151;-67
2023/06/18 05:02:57;;;;;;;6.93;5.43;;;;;;;21.49;96.20;101297.91;5061083;28;20080;-68
2023/06/18 05:05:23;;;;;;;10.27;5.72;;;;;;;21.51;96.45;101290.28;5060439;28;20546;-67
2023/06/18 05:07:48;;;;;;;9.23;5.75;;;;;;;21.52;96.64;101290.03;5060530;28;20096;-67
2023/06/18 05:10:14;;;;;;;9.65;5.90;;;;;;;21.48;96.73;101291.63;5059103;28;20058;-67
2023/06/18 05:12:39;;;;;;;7.53;6.15;;;;;;;21.51;96.67;101298.50;5059887;28;20096;-67
2023/06/18 05:15:07;;;;;;;8.98;6.35;;;;;;;21.49;97.84;101301.50;5056477;28;20033;-68
2023/06/18 05:17:34;;;;;;;8.15;5.68;;;;;;;21.46;98.25;101303.94;5058038;28;20503;-68
2023/06/18 05:20:01;;;;;;;8.02;5.80;;;;;;;21.39;98.74;101306.91;5056687;28;20045;-68
2023/06/18 05:22:26;;;;;;;9.10;6.40;;;;;;;21.28;98.16;101299.63;5061130;28;20101;-73
2023/06/18 05:24:52;;;;;;;10.35;6.70;;;;;;;21.37;98.04;101309.06;5060569;28;20025;-68
2023/06/18 05:27:17;;;;;;;9.60;6.32;;;;;;;21.29;98.04;101309.47;5058567;28;20036;-67
2023/06/18 05:29:43;;;;;;;10.48;6.22;;;;;;;21.10;98.22;101303.53;5059967;28;20499;-67
2023/06/18 05:32:09;;;;;;;10.32;7.00;;;;;;;21.05;98.60;101307.03;5041747;28;20045;-68
2023/06/18 05:34:35;;;;;;;8.25;6.80;;;;;;;20.99;98.88;101312.72;5057988;28;20029;-68
2023/06/18 05:37:00;;;;;;;9.77;6.70;;;;;;;20.95;98.97;101308.84;5058315;28;20166;-68
2023/06/18 05:39:26;;;;;;;8.23;6.85;;;;;;;20.99;98.77;101316.28;5059414;28;20043;-68
2023/06/18 05:41:52;;;;;;;7.60;6.80;;;;;;;20.93;99.21;101320.06;5057355;28;20029;-67
2023/06/18 05:44:17;;;;;;;8.85;7.00;;;;;;;20.88;99.77;101314.50;5058639;28;20033;-68
2023/06/18 05:46:43;;;;;;;9.77;7.22;;;;;;;20.86;99.90;101311.19;5058636;28;20085;-68
2023/06/18 05:49:09;;;;;;;11.18;7.18;;;;;;;20.93;99.61;101313.75;5058466;28;20073;-67
2023/06/18 05:51:35;;;;;;;11.05;7.05;;;;;;;20.83;100.00;101301.59;5059440;28;20056;-68
2023/06/18 05:54:00;;;;;;;7.15;6.45;;;;;;;20.82;100.00;101321.00;5058665;28;20373;-68
2023/06/18 05:56:26;;;;;;;9.88;7.38;;;;;;;20.86;100.00;101319.38;5037406;28;20035;-67
2023/06/18 05:58:53;;;;;;;7.30;6.43;;;;;;;20.78;100.00;101320.69;5055922;28;20033;-67
2023/06/18 06:01:18;;;;;;;8.07;6.78;;;;;;;20.76;100.00;101320.13;5057335;28;20039;-68
2023/06/18 06:03:44;;;;;;;8.48;7.00;;;;;;;20.59;100.00;101303.75;5057165;28;20033;-67
2023/06/18 06:06:09;;;;;;;9.13;6.63;;;;;;;20.72;100.00;101318.13;5057792;28;20078;-67
2023/06/18 06:08:35;;;;;;;8.52;6.68;;;;;;;20.76;100.00;101320.13;5058961;28;20029;-68
2023/06/18 06:11:01;;;;;;;9.13;6.85;;;;;;;20.84;100.00;101319.66;5058531;28;20070;-68
2023/06/18 06:13:26;;;;;;;8.15;6.82;;;;;;;20.95;100.00;101322.50;5055095;28;20025;-67
2023/06/18 06:15:52;;;;;;;7.72;6.72;;;;;;;20.97;100.00;101326.66;5053694;28;20032;-68
2023/06/18 06:18:17;;;;;;;7.85;6.68;;;;;;;20.81;100.00;101295.56;5041164;28;20033;-67
2023/06/18 06:20:43;;;;;;;7.53;6.88;;;;;;;20.96;100.00;101322.28;5058238;28;20025;-67
2023/06/18 06:23:08;;;;;;;8.23;7.38;;;;;;;20.91;100.00;101324.13;5056511;28;20040;-67
2023/06/18 06:25:34;;;;;;;10.05;7.63;;;;;;;20.98;100.00;101325.56;5054711;28;20060;-66
2023/06/18 06:27:59;;;;;;;7.75;6.65;;;;;;;21.04;100.00;101331.94;5057529;28;20025;-68
2023/06/18 06:30:25;;;;;;;9.23;7.20;;;;;;;21.18;99.98;101335.09;5055447;28;20684;-67
2023/06/18 06:32:50;;;;;;;10.23;6.85;;;;;;;21.21;99.49;101340.88;5054907;28;20108;-67
2023/06/18 06:35:16;;;;;;;9.05;7.35;;;;;;;21.17;99.96;101342.47;5041079;28;20094;-68
2023/06/18 06:37:42;;;;;;;7.85;6.75;;;;;;;21.15;99.75;101349.28;5057098;28;20025;-67
2023/06/18 06:40:09;;;;;;;7.40;6.60;;;;;;;21.03;99.62;101347.53;5058613;28;20041;-67
2023/06/18 06:42:35;;;;;;;8.50;6.72;;;;;;;20.56;100.00;101292.50;5057146;28;20029;-68
2023/06/18 06:45:01;;;;;;;12.90;6.80;;;;;;;20.78;100.00;101353.50;5057425;28;20465;-67
2023/06/18 06:47:27;;;;;;;8.43;6.68;;;;;;;20.69;100.00;101349.53;5057084;28;20123;-68
2023/06/18 06:49:52;;;;;;;7.88;6.63;;;;;;;20.79;99.74;101359.78;5058371;28;20025;-68
2023/06/18 06:52:17;;;;;;;7.97;6.50;;;;;;;20.79;98.99;101357.06;5058387;28;20413;-67
2023/06/18 06:54:43;;;;;;;9.18;6.72;;;;;;;20.95;98.04;101356.16;5056883;28;20033;-68
2023/06/18 06:57:08;;;;;;;7.72;6.65;;;;;;;20.92;98.13;101355.84;5058293;28;20055;-68
2023/06/18 06:59:34;;;;;;;7.05;6.35;;;;;;;20.92;98.12;101353.13;5056510;28;20029;-67
2023/06/18 07:01:59;;;;;;;7.38;6.68;;;;;;;21.02;96.78;101359.53;5056197;28;20476;-68
2023/06/18 07:04:24;;;;;;;9.85;6.70;;;;;;;21.25;96.12;101360.34;5056909;28;20051;-67
2023/06/18 07:06:50;;;;;;;8.45;6.20;;;;;;;21.13;95.65;101356.94;5055801;28;20044;-68
2023/06/18 07:09:15;;;;;;;7.43;6.72;;;;;;;21.33;94.75;101355.25;5055620;28;20039;-68
2023/06/18 07:11:41;;;;;;;7.07;6.20;;;;;;;21.21;94.54;101360.03;5055943;28;20495;-67
2023/06/18 07:14:07;;;;;;;8.50;6.45;;;;;;;21.10;94.22;101350.06;5057657;28;20051;-68
2023/06/18 07:16:32;;;;;;;11.48;6.88;;;;;;;21.05;93.98;101358.19;5056577;28;20028;-67
2023/06/18 07:18:58;;;;;;;7.40;6.35;;;;;;;21.00;93.79;101358.16;5056671;28;20036;-67
2023/06/18 07:21:23;;;;;;;8.30;6.38;;;;;;;20.96;94.34;101357.84;5055681;28;20128;-67
2023/06/18 07:23:49;;;;;;;6.85;6.00;;;;;;;20.88;94.47;101364.56;5057092;28;20029;-67
2023/06/18 07:26:14;;;;;;;8.05;6.38;;;;;;;20.95;93.67;101356.16;5056681;28;20037;-68
2023/06/18 07:28:40;;;;;;;7.32;6.20;;;;;;;20.84;93.84;101359.88;5056078;28;20025;-67
2023/06/18 07:31:05;;;;;;;6.65;5.95;;;;;;;20.78;93.86;101360.88;5055466;28;20492;-67
2023/06/18 07:33:31;;;;;;;9.75;6.13;;;;;;;21.06;92.96;101366.16;5053154;28;20036;-67
2023/06/18 07:35:56;;;;;;;8.20;6.40;;;;;;;21.01;93.16;101368.00;5056917;28;20401;-68
2023/06/18 07:38:22;;;;;;;7.00;6.10;;;;;;;20.92;93.23;101366.78;5056675;28;20034;-67
2023/06/18 07:40:48;;;;;;;9.77;5.85;;;;;;;20.87;92.50;101359.38;5039467;28;20112;-67
2023/06/18 07:43:13;;;;;;;6.75;5.68;;;;;;;20.71;92.81;101361.06;5039892;28;20025;-67
2023/06/18 07:45:39;;;;;;;6.25;5.13;;;;;;;20.78;91.87;101363.63;5053502;28;20057;-67
2023/06/18 07:48:04;;;;;;;5.88;5.28;;;;;;;20.81;91.39;101342.06;5056059;28;20036;-67
2023/06/18 07:50:30;;;;;;;5.97;5.15;;;;;;;20.62;90.56;101302.41;5056276;28;20125;-68
2023/06/18 07:52:55;;;;;;;6.18;5.57;;;;;;;20.81;91.38;101354.91;5057961;28;20063;-66
2023/06/18 07:55:21;;;;;;;6.00;5.40;;;;;;;21.05;90.24;101353.56;5055918;28;20482;-68
2023/06/18 07:57:46;;;;;;;7.03;5.55;;;;;;;21.14;89.95;101353.94;5057410;28;20033;-68
2023/06/18 08:00:12;;;;;;;8.50;5.35;;;;;;;21.34;89.00;101351.44;5056297;28;20037;-67
2023/06/18 08:02:38;;;;;;;7.97;5.00;;;;;;;21.36;88.81;101345.72;5055868;28;20032;-67
2023/06/18 08:05:04;;;;;;;6.95;5.25;;;;;;;21.34;88.21;101324.06;5056595;28;20600;-67
2023/06/18 08:07:30;;;;;;;5.38;4.88;;;;;;;21.47;88.46;101341.19;5054872;28;20071;-68
2023/06/18 08:09:55;;;;;;;6.47;4.82;;;;;;;21.38;88.60;101340.81;5038321;28;20106;-67
2023/06/18 08:12:20;;;;;;;5.72;5.07;;;;;;;21.45;88.23;101333.22;5038519;28;20032;-68
2023/06/18 08:14:46;;;;;;;7.38;5.45;;;;;;;21.50;87.34;101313.28;5054547;28;20036;-68
2023/06/18 08:17:16;;;;;;;6.00;5.40;;;;;;;21.66;86.36;101303.28;5054238;28;20140;-67
2023/06/18 08:19:44;;;;;;;6.63;5.78;;;;;;;21.82;86.77;101327.00;5055040;28;20024;-68
2023/06/18 08:22:14;;;;;;;8.00;4.97;;;;;;;21.90;86.13;101339.38;5056205;28;20094;-68
2023/06/18 08:24:40;;;;;;;5.97;5.38;;;;;;;21.79;85.94;101320.13;5056317;28;20430;-68
2023/06/18 08:27:06;;;;;;;6.10;5.30;;;;;;;21.90;85.44;101326.50;5054922;28;20255;-68
2023/06/18 08:29:31;;;;;;;6.07;5.40;;;;;;;21.91;85.10;101325.41;5058909;28;20395;-68
2023/06/18 08:32:00;;;;;;;6.53;5.15;;;;;;;21.66;85.44;101327.94;5061190;28;20024;-68
2023/06/18 08:34:25;;;;;;;6.57;5.60;;;;;;;21.81;84.29;101301.47;5060225;28;20033;-67
2023/06/18 08:36:51;;;;;;;6.03;5.13;;;;;;;21.69;84.41;101316.44;5058482;28;20514;-68
2023/06/18 08:39:17;;;;;;;6.95;5.70;;;;;;;21.73;84.79;101315.69;5058746;28;20032;-68
2023/06/18 08:41:45;;;;;;;5.75;5.20;;;;;;;22.01;83.87;101313.69;5059837;28;20498;-68
2023/06/18 08:44:10;;;;;;;6.78;5.70;;;;;;;22.13;83.96;101325.28;5059767;28;20092;-67
2023/06/18 08:46:36;;;;;;;9.68;6.00;;;;;;;22.33;83.08;101308.19;5059860;28;20449;-67
2023/06/18 08:49:02;;;;;;;7.10;5.63;;;;;;;22.34;82.55;101311.75;5059040;28;20029;-67
2023/06/18 08:51:28;;;;;;;6.88;5.55;;;;;;;22.60;81.31;101312.69;5060094;28;20021;-67
2023/06/18 08:54:03;;;;;;;7.28;5.55;;;;;;;22.40;81.85;101299.72;5058326;28;20032;-67
2023/06/18 08:56:30;;;;;;;6.20;5.60;;;;;;;22.50;81.79;101306.06;5058681;28;20550;-68
2023/06/18 08:58:59;;;;;;;6.93;5.70;;;;;;;22.54;81.66;101305.53;5056363;28;20025;-67
2023/06/18 09:01:26;;;;;;;6.32;5.25;;;;;;;22.81;80.97;101299.88;5056686;28;20064;-67
2023/06/18 09:03:53;;;;;;;7.38;5.88;;;;;;;22.68;80.80;101306.69;5059961;28;20434;-68
2023/06/18 09:06:18;;;;;;;7.47;5.80;;;;;;;22.60;80.29;101299.81;5059874;28;20037;-67
2023/06/18 09:08:46;;;;;;;9.23;5.65;;;;;;;22.72;79.88;101302.34;5059777;28;20096;-67
2023/06/18 09:11:12;;;;;;;7.82;5.85;;;;;;;22.74;79.94;101297.38;5059193;28;20029;-67
2023/06/18 09:13:42;;;;;;;6.70;5.85;;;;;;;23.01;78.41;101301.91;5058204;28;20357;-68
2023/06/18 09:16:08;;;;;;;6.95;6.18;;;;;;;23.31;77.26;101285.50;5059420;28;20388;-68
2023/06/18 09:18:34;;;;;;;6.65;5.88;;;;;;;23.18;76.66;101288.78;5059572;28;20036;-68
2023/06/18 09:21:00;;;;;;;10.38;5.68;;;;;;;23.45;75.72;101277.56;5040818;28;20029;-68
2023/06/18 09:23:25;;;;;;;6.45;5.85;;;;;;;23.52;75.29;101291.84;5063210;28;20033;-72
2023/06/18 09:25:55;;;;;;;8.40;6.18;;;;;;;23.15;75.43;101278.34;5063208;28;20020;-68
2023/06/18 09:28:22;;;;;;;7.00;5.93;;;;;;;23.40;75.24;101281.09;5059045;28;20025;-67
2023/06/18 09:30:57;;;;;;;6.97;5.80;;;;;;;23.45;75.70;101283.88;5059661;28;20029;-68
2023/06/18 09:33:36;;;;;;;6.93;5.30;;;;;;;23.29;74.06;101273.97;5057978;28;20079;-68
2023/06/18 09:36:07;;;;;;;6.68;5.13;;;;;;;23.10;74.00;101275.59;5058904;28;20032;-67
2023/06/18 09:38:37;;;;;;;5.45;4.85;;;;;;;22.88;73.76;101279.34;5059274;28;20108;-67
2023/06/18 09:41:10;;;;;;;6.95;5.13;;;;;;;22.91;74.26;101281.56;5057458;28;20025;-68
2023/06/18 09:43:38;;;;;;;6.40;5.50;;;;;;;23.13;73.86;101283.28;5057222;28;20025;-68
2023/06/18 09:46:06;;;;;;;7.15;5.18;;;;;;;23.06;74.11;101289.03;5057599;28;20466;-68
2023/06/18 09:48:34;;;;;;;6.63;5.18;;;;;;;23.28;73.94;101282.47;5058578;28;20116;-68
2023/06/18 09:51:01;;;;;;;5.50;5.00;;;;;;;23.03;74.82;101296.97;5058591;28;20537;-67
2023/06/18 09:53:26;;;;;;;6.35;5.60;;;;;;;22.80;75.62;101310.03;5059302;28;20051;-68
2023/06/18 09:55:52;;;;;;;5.05;4.55;;;;;;;22.57;75.45;101294.84;5058485;28;20467;-67
2023/06/18 09:58:17;;;;;;;7.03;5.00;;;;;;;22.69;75.15;101289.97;5058637;28;20048;-67
2023/06/18 10:01:02;;;;;;;7.75;4.85;;;;;;;22.77;74.41;101296.84;5059112;28;20056;-67
2023/06/18 10:03:27;;;;;;;4.72;4.22;;;;;;;22.50;74.63;101284.13;5059740;28;20037;-68
2023/06/18 10:05:53;;;;;;;5.00;4.38;;;;;;;22.27;75.48;101293.59;5058918;28;20394;-68
2023/06/18 10:08:19;;;;;;;5.43;4.55;;;;;;;22.45;75.26;101289.59;5055304;28;20094;-68
2023/06/18 10:10:45;;;;;;;5.38;4.55;;;;;;;22.68;75.27;101290.22;5054735;28;20044;-67
2023/06/18 10:13:12;;;;;;;5.35;4.85;;;;;;;22.73;75.35;101288.34;5058118;28;20036;-68
2023/06/18 10:15:39;;;;;;;5.30;4.80;;;;;;;22.52;75.30;101292.09;5059659;28;20076;-67
2023/06/18 10:18:08;;;;;;;5.72;5.00;;;;;;;22.29;75.15;101282.41;5059933;28;20029;-66
2023/06/18 10:20:34;;;;;;;7.40;5.10;;;;;;;22.32;76.00;101286.50;5054445;28;20368;-66
2023/06/18 10:23:02;;;;;;;5.10;4.60;;;;;;;22.25;75.20;101268.38;5058677;28;20040;-66
2023/06/18 10:25:30;;;;;;;5.63;4.90;;;;;;;22.34;75.55;101290.63;5058541;28;20025;-65
2023/06/18 10:27:56;;;;;;;5.57;4.80;;;;;;;22.51;75.63;101280.28;5059502;28;20028;-65
2023/06/18 10:30:22;;;;;;;4.82;4.32;;;;;;;22.55;74.95;101290.72;5058283;28;20041;-66
2023/06/18 10:32:48;;;;;;;4.78;4.28;;;;;;;22.11;76.66;101305.53;5059378;28;20545;-65
2023/06/18 10:35:14;;;;;;;4.50;4.10;;;;;;;21.92;77.51;101282.38;5059847;28;20029;-65
2023/06/18 10:37:43;;;;;;;4.50;4.10;;;;;;;21.88;78.03;101289.47;5058782;28;20025;-66
2023/06/18 10:40:10;;;;;;;6.03;4.05;;;;;;;21.73;78.99;101301.97;5057778;28;20029;-65
2023/06/18 10:42:35;;;;;;;4.18;3.72;;;;;;;21.89;78.56;101300.19;5057173;28;20028;-65
2023/06/18 10:45:19;;;;;;;4.18;3.78;;;;;;;21.67;79.78;101289.31;5057491;28;20053;-66
2023/06/18 10:47:44;;;;;;;4.30;3.90;;;;;;;21.52;81.15;101301.00;5057463;28;20043;-65
2023/06/18 10:50:12;;;;;;;6.05;3.80;;;;;;;21.58;82.54;101294.44;5057253;28;20029;-66
2023/06/18 10:52:42;;;;;;;4.50;3.38;;;;;;;21.45;83.67;101292.13;5057468;28;20096;-66
2023/06/18 10:55:26;;;;;;;3.30;3.00;;;;;;;21.35;85.22;101312.03;5056222;28;20028;-66
2023/06/18 10:57:59;;;;;;;3.77;3.47;;;;;;;21.21;86.93;101299.00;5056849;28;20021;-66
2023/06/18 11:00:30;;;;;;;4.10;3.10;;;;;;;21.46;85.99;101291.06;5057801;28;20062;-67
2023/06/18 11:02:59;;;;;;;3.53;3.05;;;;;;;21.43;87.36;101304.47;5058757;28;20057;-65
2023/06/18 11:05:36;;;;;;;3.20;2.90;;;;;;;21.33;88.22;101296.94;5058595;28;20405;-65
2023/06/18 11:08:07;;;;;;;3.33;3.03;;;;;;;21.16;89.84;101302.53;5058621;28;20373;-65
2023/06/18 11:10:40;;;;;;;3.90;3.20;;;;;;;21.51;88.30;101288.38;5058772;28;20151;-65
2023/06/18 11:13:09;;;;;;;4.07;3.67;;;;;;;21.56;89.14;101296.63;5057265;28;20368;-65
2023/06/18 11:15:36;;;;;;;3.53;3.13;;;;;;;21.66;88.11;101292.34;5057892;28;20082;-66
2023/06/18 11:18:02;;;;;;;3.63;3.28;;;;;;;21.71;88.50;101298.66;5058162;28;20084;-65
2023/06/18 11:20:38;;;;;;;3.78;3.10;;;;;;;21.54;89.96;101287.84;5057015;28;20028;-65
2023/06/18 11:23:04;;;;;;;3.45;2.92;;;;;;;21.62;89.35;101289.28;5052078;28;20033;-65